FDX1073 KGSO-KEWR
Flight info
| Callsign | FDX1073 |
|---|---|
| Flight time | 1h 12m |
| Altitude | 35000 |
| Route | JEANY1 JAXSN QUART PHLBO4 |
| Aircraft | B752/M-SDE3FGHIM3RWXY/LB1 |
Departure
| Time | 2026-04-22 14:22 |
|---|---|
| Airport | Piedmont Triad International Airport (KGSO) |
Arrival
| Time | 2026-04-22 15:34 |
|---|---|
| Airport | Newark Liberty International Airport (KEWR) |
| Time | Latitude | Longitude | Altitude | Speed | Heading |
|---|---|---|---|---|---|
| 2026-04-22 13:56 | 36.11438 | -79.92223 | 885 ft | 0 kts | 316° |
| 2026-04-22 14:10 | 36.11428 | -79.92210 | 885 ft | 1 kts | 316° |
| 2026-04-22 14:11 | 36.11421 | -79.92202 | 885 ft | 2 kts | 312° |
| 2026-04-22 14:11 | 36.11413 | -79.92187 | 886 ft | 2 kts | 292° |
| 2026-04-22 14:11 | 36.11409 | -79.92172 | 886 ft | 1 kts | 277° |
| 2026-04-22 14:11 | 36.11409 | -79.92155 | 887 ft | 2 kts | 264° |
| 2026-04-22 14:12 | 36.11412 | -79.92137 | 886 ft | 2 kts | 248° |
| 2026-04-22 14:12 | 36.11418 | -79.92124 | 886 ft | 1 kts | 233° |
| 2026-04-22 14:12 | 36.11424 | -79.92115 | 886 ft | 0 kts | 226° |
| 2026-04-22 14:12 | 36.11425 | -79.92115 | 886 ft | 0 kts | 226° |
| 2026-04-22 14:14 | 36.11424 | -79.92116 | 886 ft | 1 kts | 226° |
| 2026-04-22 14:14 | 36.11401 | -79.92146 | 886 ft | 4 kts | 226° |
| 2026-04-22 14:14 | 36.11371 | -79.92185 | 887 ft | 8 kts | 226° |
| 2026-04-22 14:14 | 36.11319 | -79.92252 | 888 ft | 12 kts | 226° |
| 2026-04-22 14:15 | 36.11265 | -79.92305 | 887 ft | 7 kts | 196° |
| 2026-04-22 14:15 | 36.11214 | -79.92285 | 888 ft | 8 kts | 141° |
| 2026-04-22 14:15 | 36.11163 | -79.92230 | 889 ft | 10 kts | 146° |
| 2026-04-22 14:15 | 36.11099 | -79.92240 | 888 ft | 10 kts | 223° |
| 2026-04-22 14:16 | 36.11043 | -79.92310 | 889 ft | 11 kts | 225° |
| 2026-04-22 14:16 | 36.10978 | -79.92393 | 889 ft | 15 kts | 227° |
| 2026-04-22 14:16 | 36.10903 | -79.92489 | 889 ft | 14 kts | 226° |
| 2026-04-22 14:16 | 36.10838 | -79.92574 | 891 ft | 13 kts | 226° |
| 2026-04-22 14:17 | 36.10770 | -79.92660 | 891 ft | 14 kts | 226° |
| 2026-04-22 14:17 | 36.10729 | -79.92756 | 891 ft | 11 kts | 289° |
| 2026-04-22 14:17 | 36.10773 | -79.92821 | 892 ft | 9 kts | 315° |
| 2026-04-22 14:17 | 36.10826 | -79.92884 | 891 ft | 13 kts | 316° |
| 2026-04-22 14:18 | 36.10909 | -79.92983 | 887 ft | 19 kts | 315° |
| 2026-04-22 14:18 | 36.10984 | -79.93073 | 879 ft | 15 kts | 315° |
| 2026-04-22 14:18 | 36.11065 | -79.93169 | 868 ft | 16 kts | 315° |
| 2026-04-22 14:18 | 36.11152 | -79.93272 | 855 ft | 17 kts | 316° |
| 2026-04-22 14:19 | 36.11227 | -79.93361 | 846 ft | 14 kts | 315° |
| 2026-04-22 14:19 | 36.11306 | -79.93456 | 839 ft | 16 kts | 316° |
| 2026-04-22 14:19 | 36.11375 | -79.93537 | 839 ft | 10 kts | 315° |
| 2026-04-22 14:19 | 36.11431 | -79.93605 | 843 ft | 11 kts | 315° |
| 2026-04-22 14:20 | 36.11547 | -79.93649 | 848 ft | 4 kts | 355° |
| 2026-04-22 14:20 | 36.11570 | -79.93655 | 849 ft | 3 kts | 339° |
| 2026-04-22 14:20 | 36.11599 | -79.93682 | 852 ft | 6 kts | 315° |
| 2026-04-22 14:21 | 36.11578 | -79.93794 | 859 ft | 9 kts | 225° |
| 2026-04-22 14:21 | 36.11389 | -79.94036 | 858 ft | 75 kts | 226° |
| 2026-04-22 14:22 | 36.10028 | -79.95759 | 1252 ft | 173 kts | 225° |
| 2026-04-22 14:22 | 36.09074 | -79.96904 | 2105 ft | 179 kts | 227° |
| 2026-04-22 14:22 | 36.06980 | -79.99520 | 3425 ft | 211 kts | 229° |
| 2026-04-22 14:23 | 36.05868 | -80.00907 | 4311 ft | 216 kts | 230° |
| 2026-04-22 14:23 | 36.04712 | -80.02353 | 4998 ft | 228 kts | 231° |
| 2026-04-22 14:23 | 36.03528 | -80.03834 | 4968 ft | 227 kts | 230° |
| 2026-04-22 14:23 | 36.02165 | -80.04866 | 4981 ft | 225 kts | 197° |
| 2026-04-22 14:24 | 36.00539 | -80.04771 | 5025 ft | 245 kts | 162° |
| 2026-04-22 14:24 | 35.99116 | -80.03579 | 5028 ft | 252 kts | 129° |
| 2026-04-22 14:24 | 35.98377 | -80.01626 | 5023 ft | 251 kts | 95° |
| 2026-04-22 14:24 | 35.98551 | -79.99532 | 5022 ft | 247 kts | 65° |
| 2026-04-22 14:25 | 35.99455 | -79.97814 | 5026 ft | 238 kts | 36° |
| 2026-04-22 14:25 | 36.00706 | -79.96447 | 5056 ft | 249 kts | 39° |
| 2026-04-22 14:25 | 36.01998 | -79.94812 | 5537 ft | 271 kts | 42° |
| 2026-04-22 14:25 | 36.03335 | -79.93004 | 6561 ft | 272 kts | 43° |
| 2026-04-22 14:26 | 36.04692 | -79.91114 | 7470 ft | 277 kts | 44° |
| 2026-04-22 14:26 | 36.06052 | -79.89179 | 8347 ft | 282 kts | 45° |
| 2026-04-22 14:26 | 36.07400 | -79.87241 | 9210 ft | 287 kts | 46° |
| 2026-04-22 14:26 | 36.08787 | -79.85235 | 10081 ft | 291 kts | 46° |
| 2026-04-22 14:27 | 36.10190 | -79.83200 | 10535 ft | 310 kts | 46° |
| 2026-04-22 14:27 | 36.11708 | -79.80994 | 10923 ft | 330 kts | 46° |
| 2026-04-22 14:27 | 36.13308 | -79.78663 | 11269 ft | 351 kts | 46° |
| 2026-04-22 14:27 | 36.15061 | -79.76107 | 11617 ft | 372 kts | 46° |
| 2026-04-22 14:28 | 36.16891 | -79.73434 | 11945 ft | 390 kts | 46° |
| 2026-04-22 14:28 | 36.18818 | -79.70615 | 12780 ft | 394 kts | 46° |
| 2026-04-22 14:28 | 36.20734 | -79.67810 | 13380 ft | 402 kts | 46° |
| 2026-04-22 14:28 | 36.22702 | -79.64928 | 14209 ft | 405 kts | 46° |
| 2026-04-22 14:29 | 36.24660 | -79.62058 | 14953 ft | 409 kts | 46° |
| 2026-04-22 14:29 | 36.26622 | -79.59180 | 15702 ft | 412 kts | 46° |
| 2026-04-22 14:29 | 36.28618 | -79.56258 | 16433 ft | 416 kts | 46° |
| 2026-04-22 14:29 | 36.30621 | -79.53329 | 17134 ft | 420 kts | 45° |
| 2026-04-22 14:30 | 36.32577 | -79.50465 | 17803 ft | 423 kts | 45° |
| 2026-04-22 14:30 | 36.34554 | -79.47567 | 18488 ft | 426 kts | 45° |
| 2026-04-22 14:30 | 36.36460 | -79.44772 | 19147 ft | 428 kts | 45° |
| 2026-04-22 14:30 | 36.38380 | -79.41953 | 19779 ft | 431 kts | 45° |
| 2026-04-22 14:31 | 36.40315 | -79.39111 | 20377 ft | 434 kts | 45° |
| 2026-04-22 14:31 | 36.42228 | -79.36000 | 20982 ft | 440 kts | 53° |
| 2026-04-22 14:31 | 36.43932 | -79.32674 | 21579 ft | 443 kts | 53° |
| 2026-04-22 14:31 | 36.45645 | -79.29340 | 22163 ft | 447 kts | 54° |
| 2026-04-22 14:32 | 36.47300 | -79.26096 | 22697 ft | 449 kts | 54° |
| 2026-04-22 14:32 | 36.48967 | -79.22821 | 23252 ft | 451 kts | 54° |
| 2026-04-22 14:32 | 36.50646 | -79.19518 | 23753 ft | 455 kts | 54° |
| 2026-04-22 14:32 | 36.52353 | -79.16150 | 24264 ft | 458 kts | 54° |
| 2026-04-22 14:33 | 36.54219 | -79.12466 | 24774 ft | 461 kts | 54° |
| 2026-04-22 14:33 | 36.56095 | -79.08757 | 25262 ft | 465 kts | 54° |
| 2026-04-22 14:33 | 36.57860 | -79.05263 | 25715 ft | 468 kts | 54° |
| 2026-04-22 14:33 | 36.59602 | -79.01813 | 26170 ft | 471 kts | 54° |
| 2026-04-22 14:34 | 36.61330 | -78.98384 | 26546 ft | 475 kts | 54° |
| 2026-04-22 14:34 | 36.63086 | -78.94898 | 26990 ft | 477 kts | 54° |
| 2026-04-22 14:34 | 36.64873 | -78.91348 | 27371 ft | 481 kts | 54° |
| 2026-04-22 14:34 | 36.66631 | -78.87848 | 27798 ft | 483 kts | 54° |
| 2026-04-22 14:35 | 36.68425 | -78.84276 | 28162 ft | 486 kts | 54° |
| 2026-04-22 14:35 | 36.70236 | -78.80715 | 28510 ft | 488 kts | 51° |
| 2026-04-22 14:35 | 36.72404 | -78.77376 | 28946 ft | 483 kts | 42° |
| 2026-04-22 14:35 | 36.74850 | -78.74157 | 29241 ft | 488 kts | 42° |
| 2026-04-22 14:36 | 36.77331 | -78.70892 | 29691 ft | 489 kts | 42° |
| 2026-04-22 14:36 | 36.79838 | -78.67606 | 30033 ft | 492 kts | 41° |
| 2026-04-22 14:36 | 36.82367 | -78.64293 | 30431 ft | 493 kts | 41° |
| 2026-04-22 14:36 | 36.84921 | -78.60947 | 31003 ft | 490 kts | 41° |
| 2026-04-22 14:37 | 36.87409 | -78.57687 | 31480 ft | 488 kts | 41° |
| 2026-04-22 14:37 | 36.89867 | -78.54465 | 31961 ft | 486 kts | 41° |
| 2026-04-22 14:37 | 36.92333 | -78.51230 | 32445 ft | 483 kts | 41° |
| 2026-04-22 14:37 | 36.94811 | -78.47976 | 32936 ft | 480 kts | 41° |
| 2026-04-22 14:38 | 36.97303 | -78.44704 | 33337 ft | 478 kts | 41° |
| 2026-04-22 14:38 | 36.99730 | -78.41510 | 33813 ft | 475 kts | 41° |
| 2026-04-22 14:38 | 37.02198 | -78.38262 | 34169 ft | 475 kts | 41° |
| 2026-04-22 14:38 | 37.04594 | -78.35105 | 34550 ft | 473 kts | 41° |
| 2026-04-22 14:39 | 37.06953 | -78.31996 | 34842 ft | 473 kts | 42° |
| 2026-04-22 14:39 | 37.09319 | -78.28870 | 35141 ft | 471 kts | 41° |
| 2026-04-22 14:39 | 37.11606 | -78.25849 | 35039 ft | 472 kts | 41° |
| 2026-04-22 14:40 | 37.18553 | -78.16652 | 35147 ft | 470 kts | 41° |
| 2026-04-22 14:40 | 37.23191 | -78.10497 | 35132 ft | 471 kts | 41° |
| 2026-04-22 14:41 | 37.27813 | -78.04351 | 35133 ft | 470 kts | 41° |
| 2026-04-22 14:41 | 37.32328 | -77.98337 | 35128 ft | 470 kts | 41° |
| 2026-04-22 14:42 | 37.36795 | -77.92376 | 35135 ft | 471 kts | 41° |
| 2026-04-22 14:42 | 37.41294 | -77.86360 | 35126 ft | 470 kts | 41° |
| 2026-04-22 14:43 | 37.45771 | -77.80363 | 35120 ft | 470 kts | 41° |
| 2026-04-22 14:43 | 37.50247 | -77.74357 | 35129 ft | 471 kts | 41° |
| 2026-04-22 14:44 | 37.55245 | -77.69258 | 35127 ft | 461 kts | 27° |
| 2026-04-22 14:44 | 37.60674 | -77.64834 | 35120 ft | 460 kts | 27° |
| 2026-04-22 14:45 | 37.66035 | -77.60477 | 35119 ft | 461 kts | 27° |
| 2026-04-22 14:45 | 37.71525 | -77.56021 | 35117 ft | 461 kts | 27° |
| 2026-04-22 14:46 | 37.76968 | -77.51601 | 35118 ft | 461 kts | 27° |
| 2026-04-22 14:46 | 37.79668 | -77.49407 | 35232 ft | 461 kts | 27° |
| 2026-04-22 14:46 | 37.82408 | -77.47178 | 35107 ft | 462 kts | 27° |
| 2026-04-22 14:47 | 37.87877 | -77.42723 | 35102 ft | 462 kts | 27° |
| 2026-04-22 14:47 | 37.93330 | -77.38275 | 35103 ft | 462 kts | 27° |
| 2026-04-22 14:48 | 37.98721 | -77.33871 | 35092 ft | 462 kts | 27° |
| 2026-04-22 14:48 | 38.04162 | -77.29422 | 35089 ft | 463 kts | 27° |
| 2026-04-22 14:49 | 38.09559 | -77.25002 | 35086 ft | 463 kts | 27° |
| 2026-04-22 14:49 | 38.15017 | -77.20525 | 35099 ft | 462 kts | 28° |
| 2026-04-22 14:50 | 38.20399 | -77.16100 | 35093 ft | 463 kts | 27° |
| 2026-04-22 14:50 | 38.25851 | -77.11612 | 35090 ft | 465 kts | 27° |
| 2026-04-22 14:51 | 38.31195 | -77.06981 | 35102 ft | 468 kts | 32° |
| 2026-04-22 14:51 | 38.36423 | -77.01921 | 35097 ft | 468 kts | 32° |
| 2026-04-22 14:52 | 38.41651 | -76.96880 | 35013 ft | 469 kts | 31° |
| 2026-04-22 14:52 | 38.46938 | -76.91775 | 35086 ft | 467 kts | 31° |
| 2026-04-22 14:53 | 38.52249 | -76.86643 | 35096 ft | 467 kts | 31° |
| 2026-04-22 14:53 | 38.57515 | -76.81544 | 35106 ft | 468 kts | 31° |
| 2026-04-22 14:54 | 38.62704 | -76.76509 | 35083 ft | 468 kts | 31° |
| 2026-04-22 14:54 | 38.67879 | -76.71480 | 35083 ft | 463 kts | 31° |
| 2026-04-22 14:55 | 38.70387 | -76.69030 | 34974 ft | 446 kts | 31° |
| 2026-04-22 14:55 | 38.72812 | -76.66666 | 34761 ft | 436 kts | 31° |
| 2026-04-22 14:55 | 38.75254 | -76.64288 | 34540 ft | 440 kts | 31° |
| 2026-04-22 14:55 | 38.77708 | -76.61901 | 34297 ft | 449 kts | 31° |
| 2026-04-22 14:56 | 38.80206 | -76.59462 | 34060 ft | 453 kts | 31° |
| 2026-04-22 14:56 | 38.82720 | -76.57004 | 33643 ft | 448 kts | 31° |
| 2026-04-22 14:56 | 38.85162 | -76.54608 | 33391 ft | 440 kts | 31° |
| 2026-04-22 14:56 | 38.87624 | -76.52201 | 33134 ft | 447 kts | 31° |
| 2026-04-22 14:57 | 38.90128 | -76.49753 | 32887 ft | 457 kts | 31° |
| 2026-04-22 14:57 | 38.92662 | -76.47266 | 32636 ft | 459 kts | 31° |
| 2026-04-22 14:57 | 38.95191 | -76.44780 | 32377 ft | 456 kts | 31° |
| 2026-04-22 14:57 | 38.97716 | -76.42297 | 32117 ft | 455 kts | 31° |
| 2026-04-22 14:58 | 39.00235 | -76.39819 | 31858 ft | 457 kts | 31° |
| 2026-04-22 14:58 | 39.02750 | -76.37334 | 31602 ft | 461 kts | 33° |
| 2026-04-22 14:58 | 39.05206 | -76.34548 | 31342 ft | 463 kts | 37° |
| 2026-04-22 14:58 | 39.07647 | -76.31679 | 31060 ft | 464 kts | 37° |
| 2026-04-22 14:59 | 39.10100 | -76.28814 | 30760 ft | 465 kts | 37° |
| 2026-04-22 14:59 | 39.12577 | -76.25922 | 30256 ft | 470 kts | 37° |
| 2026-04-22 14:59 | 39.15047 | -76.23034 | 29713 ft | 469 kts | 37° |
| 2026-04-22 14:59 | 39.17521 | -76.20139 | 29189 ft | 465 kts | 37° |
| 2026-04-22 15:00 | 39.19971 | -76.17270 | 28607 ft | 460 kts | 37° |
| 2026-04-22 15:00 | 39.22345 | -76.14488 | 28051 ft | 453 kts | 37° |
| 2026-04-22 15:00 | 39.24712 | -76.11713 | 27489 ft | 448 kts | 37° |
| 2026-04-22 15:00 | 39.27039 | -76.08984 | 27082 ft | 443 kts | 36° |
| 2026-04-22 15:01 | 39.29389 | -76.06221 | 27057 ft | 436 kts | 36° |
| 2026-04-22 15:01 | 39.31607 | -76.03610 | 26261 ft | 429 kts | 36° |
| 2026-04-22 15:01 | 39.33826 | -76.01007 | 25391 ft | 429 kts | 36° |
| 2026-04-22 15:01 | 39.35986 | -75.98456 | 25088 ft | 415 kts | 36° |
| 2026-04-22 15:02 | 39.38133 | -75.95933 | 24806 ft | 427 kts | 36° |
| 2026-04-22 15:02 | 39.40374 | -75.93298 | 24490 ft | 437 kts | 37° |
| 2026-04-22 15:02 | 39.42606 | -75.90659 | 24162 ft | 433 kts | 37° |
| 2026-04-22 15:02 | 39.44796 | -75.88068 | 23824 ft | 428 kts | 36° |
| 2026-04-22 15:03 | 39.46984 | -75.85479 | 23488 ft | 426 kts | 36° |
| 2026-04-22 15:03 | 39.49178 | -75.82883 | 23146 ft | 425 kts | 37° |
| 2026-04-22 15:03 | 39.51338 | -75.80323 | 22808 ft | 423 kts | 37° |
| 2026-04-22 15:03 | 39.53508 | -75.77750 | 22458 ft | 421 kts | 37° |
| 2026-04-22 15:04 | 39.55664 | -75.75190 | 22104 ft | 419 kts | 37° |
| 2026-04-22 15:04 | 39.57781 | -75.72675 | 21756 ft | 418 kts | 37° |
| 2026-04-22 15:04 | 39.59920 | -75.70132 | 21402 ft | 416 kts | 37° |
| 2026-04-22 15:04 | 39.62034 | -75.67616 | 21048 ft | 414 kts | 37° |
| 2026-04-22 15:05 | 39.64143 | -75.65105 | 20694 ft | 412 kts | 37° |
| 2026-04-22 15:05 | 39.66260 | -75.62579 | 20335 ft | 410 kts | 37° |
| 2026-04-22 15:05 | 39.68344 | -75.60091 | 19992 ft | 409 kts | 37° |
| 2026-04-22 15:05 | 39.70449 | -75.57560 | 19457 ft | 410 kts | 37° |
| 2026-04-22 15:06 | 39.72528 | -75.55057 | 18894 ft | 405 kts | 38° |
| 2026-04-22 15:06 | 39.74575 | -75.52590 | 18354 ft | 400 kts | 38° |
| 2026-04-22 15:06 | 39.76595 | -75.50156 | 17831 ft | 398 kts | 38° |
| 2026-04-22 15:06 | 39.78598 | -75.47739 | 17268 ft | 397 kts | 38° |
| 2026-04-22 15:07 | 39.80606 | -75.45314 | 16701 ft | 393 kts | 38° |
| 2026-04-22 15:07 | 39.82595 | -75.42909 | 16156 ft | 387 kts | 37° |
| 2026-04-22 15:07 | 39.84530 | -75.40567 | 15889 ft | 373 kts | 37° |
| 2026-04-22 15:07 | 39.86387 | -75.38313 | 15863 ft | 356 kts | 37° |
| 2026-04-22 15:08 | 39.88144 | -75.36182 | 15845 ft | 338 kts | 37° |
| 2026-04-22 15:08 | 39.89838 | -75.34128 | 15738 ft | 325 kts | 37° |
| 2026-04-22 15:08 | 39.91491 | -75.32129 | 15246 ft | 325 kts | 37° |
| 2026-04-22 15:08 | 39.93123 | -75.30151 | 14853 ft | 322 kts | 37° |
| 2026-04-22 15:09 | 39.94754 | -75.28172 | 14439 ft | 320 kts | 37° |
| 2026-04-22 15:09 | 39.96374 | -75.26202 | 14028 ft | 318 kts | 37° |
| 2026-04-22 15:09 | 39.97986 | -75.24243 | 13621 ft | 316 kts | 37° |
| 2026-04-22 15:09 | 39.99594 | -75.22285 | 13187 ft | 315 kts | 38° |
| 2026-04-22 15:10 | 40.01182 | -75.20353 | 12748 ft | 313 kts | 38° |
| 2026-04-22 15:10 | 40.02776 | -75.18408 | 12460 ft | 306 kts | 38° |
| 2026-04-22 15:10 | 40.04298 | -75.16547 | 12255 ft | 298 kts | 37° |
| 2026-04-22 15:10 | 40.05801 | -75.14719 | 11800 ft | 299 kts | 38° |
| 2026-04-22 15:11 | 40.07317 | -75.12867 | 11424 ft | 298 kts | 38° |
| 2026-04-22 15:11 | 40.08819 | -75.11032 | 11041 ft | 296 kts | 38° |
| 2026-04-22 15:11 | 40.10301 | -75.09215 | 10907 ft | 282 kts | 38° |
| 2026-04-22 15:11 | 40.11720 | -75.07481 | 10935 ft | 288 kts | 37° |
| 2026-04-22 15:12 | 40.13230 | -75.05640 | 10944 ft | 296 kts | 38° |
| 2026-04-22 15:12 | 40.14698 | -75.03835 | 10731 ft | 292 kts | 38° |
| 2026-04-22 15:12 | 40.16199 | -75.01998 | 10305 ft | 293 kts | 38° |
| 2026-04-22 15:12 | 40.17666 | -75.00199 | 9925 ft | 292 kts | 38° |
| 2026-04-22 15:13 | 40.19140 | -74.98389 | 9590 ft | 289 kts | 38° |
| 2026-04-22 15:13 | 40.20619 | -74.96573 | 9177 ft | 290 kts | 38° |
| 2026-04-22 15:13 | 40.22066 | -74.94795 | 8861 ft | 286 kts | 38° |
| 2026-04-22 15:13 | 40.23508 | -74.93021 | 8536 ft | 284 kts | 38° |
| 2026-04-22 15:14 | 40.24958 | -74.91237 | 8199 ft | 281 kts | 38° |
| 2026-04-22 15:14 | 40.26300 | -74.89436 | 7928 ft | 276 kts | 42° |
| 2026-04-22 15:14 | 40.27614 | -74.87582 | 7939 ft | 281 kts | 42° |
| 2026-04-22 15:14 | 40.28993 | -74.85649 | 7929 ft | 281 kts | 42° |
| 2026-04-22 15:15 | 40.30325 | -74.83778 | 7929 ft | 279 kts | 42° |
| 2026-04-22 15:15 | 40.31650 | -74.81918 | 7929 ft | 280 kts | 42° |
| 2026-04-22 15:15 | 40.32984 | -74.80045 | 7928 ft | 281 kts | 42° |
| 2026-04-22 15:15 | 40.34316 | -74.78172 | 7934 ft | 282 kts | 42° |
| 2026-04-22 15:16 | 40.35663 | -74.76279 | 7931 ft | 281 kts | 42° |
| 2026-04-22 15:16 | 40.37048 | -74.74328 | 7933 ft | 281 kts | 42° |
| 2026-04-22 15:16 | 40.38476 | -74.72317 | 7933 ft | 282 kts | 42° |
| 2026-04-22 15:16 | 40.39890 | -74.70325 | 7920 ft | 282 kts | 42° |
| 2026-04-22 15:17 | 40.41296 | -74.68357 | 7923 ft | 280 kts | 38° |
| 2026-04-22 15:17 | 40.42893 | -74.67032 | 7968 ft | 267 kts | 12° |
| 2026-04-22 15:17 | 40.44703 | -74.66443 | 7944 ft | 267 kts | 7° |
| 2026-04-22 15:17 | 40.46499 | -74.65907 | 7936 ft | 265 kts | 7° |
| 2026-04-22 15:18 | 40.48290 | -74.65395 | 7940 ft | 264 kts | 6° |
| 2026-04-22 15:18 | 40.50102 | -74.64891 | 7938 ft | 264 kts | 6° |
| 2026-04-22 15:18 | 40.51881 | -74.64405 | 7938 ft | 263 kts | 6° |
| 2026-04-22 15:18 | 40.53684 | -74.63916 | 7937 ft | 263 kts | 6° |
| 2026-04-22 15:19 | 40.55478 | -74.63432 | 7935 ft | 264 kts | 6° |
| 2026-04-22 15:19 | 40.57291 | -74.62946 | 7941 ft | 264 kts | 6° |
| 2026-04-22 15:19 | 40.59082 | -74.62464 | 7938 ft | 263 kts | 6° |
| 2026-04-22 15:19 | 40.60871 | -74.61983 | 7939 ft | 263 kts | 6° |
| 2026-04-22 15:20 | 40.62656 | -74.61504 | 7937 ft | 263 kts | 6° |
| 2026-04-22 15:20 | 40.64475 | -74.61017 | 7937 ft | 263 kts | 6° |
| 2026-04-22 15:20 | 40.66242 | -74.60543 | 7940 ft | 262 kts | 6° |
| 2026-04-22 15:20 | 40.68041 | -74.60059 | 7942 ft | 262 kts | 6° |
| 2026-04-22 15:21 | 40.69843 | -74.59576 | 7941 ft | 263 kts | 6° |
| 2026-04-22 15:21 | 40.71610 | -74.59100 | 7942 ft | 262 kts | 6° |
| 2026-04-22 15:21 | 40.73404 | -74.58618 | 7944 ft | 262 kts | 6° |
| 2026-04-22 15:21 | 40.75191 | -74.58137 | 7945 ft | 262 kts | 6° |
| 2026-04-22 15:22 | 40.76982 | -74.57655 | 7947 ft | 262 kts | 6° |
| 2026-04-22 15:22 | 40.78780 | -74.57171 | 7948 ft | 262 kts | 6° |
| 2026-04-22 15:22 | 40.80570 | -74.56688 | 7946 ft | 262 kts | 6° |
| 2026-04-22 15:22 | 40.82345 | -74.56209 | 7948 ft | 261 kts | 6° |
| 2026-04-22 15:23 | 40.84071 | -74.55408 | 7939 ft | 267 kts | 28° |
| 2026-04-22 15:23 | 40.85391 | -74.53664 | 7594 ft | 278 kts | 56° |
| 2026-04-22 15:23 | 40.86100 | -74.51276 | 7267 ft | 279 kts | 70° |
| 2026-04-22 15:23 | 40.86649 | -74.48889 | 7163 ft | 268 kts | 69° |
| 2026-04-22 15:24 | 40.87189 | -74.46563 | 6883 ft | 264 kts | 70° |
| 2026-04-22 15:24 | 40.87696 | -74.44315 | 6861 ft | 250 kts | 70° |
| 2026-04-22 15:24 | 40.88184 | -74.42132 | 6675 ft | 243 kts | 70° |
| 2026-04-22 15:24 | 40.88662 | -74.39992 | 6317 ft | 243 kts | 70° |
| 2026-04-22 15:25 | 40.89124 | -74.37904 | 6088 ft | 236 kts | 71° |
| 2026-04-22 15:25 | 40.89581 | -74.35833 | 5884 ft | 237 kts | 71° |
| 2026-04-22 15:25 | 40.90052 | -74.33700 | 5672 ft | 242 kts | 72° |
| 2026-04-22 15:25 | 40.90522 | -74.31564 | 5451 ft | 241 kts | 72° |
| 2026-04-22 15:26 | 40.90984 | -74.29460 | 5237 ft | 238 kts | 73° |
| 2026-04-22 15:26 | 40.91440 | -74.27384 | 5025 ft | 236 kts | 73° |
| 2026-04-22 15:26 | 40.91899 | -74.25288 | 4818 ft | 235 kts | 74° |
| 2026-04-22 15:26 | 40.92350 | -74.23224 | 4616 ft | 235 kts | 74° |
| 2026-04-22 15:27 | 40.92802 | -74.21161 | 4414 ft | 234 kts | 75° |
| 2026-04-22 15:27 | 40.93252 | -74.19104 | 4164 ft | 232 kts | 75° |
| 2026-04-22 15:27 | 40.93565 | -74.17063 | 3849 ft | 228 kts | 94° |
| 2026-04-22 15:27 | 40.93118 | -74.15129 | 3518 ft | 219 kts | 129° |
| 2026-04-22 15:28 | 40.92013 | -74.13844 | 3243 ft | 210 kts | 150° |
| 2026-04-22 15:28 | 40.90825 | -74.12843 | 3251 ft | 190 kts | 150° |
| 2026-04-22 15:28 | 40.89741 | -74.11948 | 3105 ft | 179 kts | 152° |
| 2026-04-22 15:28 | 40.88706 | -74.11128 | 2942 ft | 167 kts | 152° |
| 2026-04-22 15:29 | 40.87688 | -74.10339 | 2984 ft | 175 kts | 153° |
| 2026-04-22 15:29 | 40.86621 | -74.09525 | 2971 ft | 178 kts | 153° |
| 2026-04-22 15:29 | 40.85553 | -74.08714 | 2963 ft | 175 kts | 153° |
| 2026-04-22 15:30 | 40.83398 | -74.07300 | 2955 ft | 172 kts | 177° |
| 2026-04-22 15:30 | 40.82257 | -74.07717 | 2819 ft | 177 kts | 211° |
| 2026-04-22 15:30 | 40.81240 | -74.08610 | 2626 ft | 167 kts | 209° |
| 2026-04-22 15:30 | 40.80278 | -74.09335 | 2365 ft | 154 kts | 206° |
| 2026-04-22 15:31 | 40.79336 | -74.09998 | 2166 ft | 158 kts | 204° |
| 2026-04-22 15:31 | 40.78350 | -74.10665 | 1942 ft | 154 kts | 203° |
| 2026-04-22 15:31 | 40.77444 | -74.11265 | 1701 ft | 138 kts | 202° |
| 2026-04-22 15:31 | 40.76629 | -74.11794 | 1520 ft | 129 kts | 202° |
| 2026-04-22 15:32 | 40.75828 | -74.12305 | 1351 ft | 128 kts | 201° |
| 2026-04-22 15:32 | 40.75005 | -74.12827 | 1190 ft | 132 kts | 202° |
| 2026-04-22 15:32 | 40.74171 | -74.13367 | 1004 ft | 135 kts | 203° |
| 2026-04-22 15:32 | 40.73329 | -74.13911 | 828 ft | 135 kts | 202° |
| 2026-04-22 15:33 | 40.72477 | -74.14431 | 662 ft | 134 kts | 204° |
| 2026-04-22 15:33 | 40.71635 | -74.14968 | 442 ft | 137 kts | 202° |
| 2026-04-22 15:33 | 40.70778 | -74.15520 | 244 ft | 137 kts | 204° |
| 2026-04-22 15:33 | 40.69906 | -74.16066 | 49 ft | 138 kts | 204° |
| 2026-04-22 15:34 | 40.69077 | -74.16595 | 16 ft | 119 kts | 201° |
| 2026-04-22 15:34 | 40.68559 | -74.16915 | 15 ft | 45 kts | 206° |
| 2026-04-22 15:34 | 40.68364 | -74.17059 | 15 ft | 24 kts | 217° |
| 2026-04-22 15:34 | 40.68271 | -74.17180 | 15 ft | 17 kts | 233° |
| 2026-04-22 15:35 | 40.68202 | -74.17300 | 15 ft | 15 kts | 234° |
| 2026-04-22 15:35 | 40.68154 | -74.17420 | 15 ft | 14 kts | 260° |
| 2026-04-22 15:35 | 40.68179 | -74.17535 | 15 ft | 12 kts | 294° |
| 2026-04-22 15:35 | 40.68213 | -74.17629 | 15 ft | 9 kts | 290° |
| 2026-04-22 15:36 | 40.68194 | -74.17693 | 15 ft | 7 kts | 206° |
| 2026-04-22 15:36 | 40.68146 | -74.17722 | 15 ft | 8 kts | 205° |
| 2026-04-22 15:36 | 40.68096 | -74.17753 | 15 ft | 7 kts | 206° |
| 2026-04-22 15:36 | 40.68063 | -74.17813 | 15 ft | 8 kts | 270° |
| 2026-04-22 15:37 | 40.68057 | -74.17886 | 15 ft | 9 kts | 236° |
| 2026-04-22 15:37 | 40.67998 | -74.17934 | 15 ft | 10 kts | 205° |
| 2026-04-22 15:37 | 40.67934 | -74.17974 | 15 ft | 10 kts | 205° |
| 2026-04-22 15:37 | 40.67877 | -74.18018 | 15 ft | 8 kts | 236° |
| 2026-04-22 15:38 | 40.67881 | -74.18093 | 15 ft | 8 kts | 292° |
| 2026-04-22 15:38 | 40.67936 | -74.18192 | 15 ft | 5 kts | 298° |
| 2026-04-22 15:38 | 40.67948 | -74.18225 | 15 ft | 1 kts | 295° |
| 2026-04-22 15:39 | 40.67949 | -74.18227 | 15 ft | 0 kts | 295° |